createdAt,value
2023-03-21T00:01:58.533Z,10.90
2023-03-21T00:04:33.216Z,10.90
2023-03-21T00:07:06.348Z,10.90
2023-03-21T00:09:37.447Z,11.00
2023-03-21T00:12:07.468Z,10.90
2023-03-21T00:14:37.947Z,10.80
2023-03-21T00:17:10.872Z,11.00
2023-03-21T00:19:41.842Z,10.90
2023-03-21T00:22:10.108Z,11.00
2023-03-21T00:24:41.726Z,10.90
2023-03-21T00:27:38.334Z,10.90
2023-03-21T00:29:57.994Z,10.90
2023-03-21T00:32:30.510Z,10.90
2023-03-21T00:35:16.542Z,10.90
2023-03-21T00:37:46.688Z,10.90
2023-03-21T00:40:26.343Z,10.90
2023-03-21T00:42:58.388Z,10.90
2023-03-21T00:45:29.378Z,11.00
2023-03-21T00:47:59.374Z,10.90
2023-03-21T00:50:30.589Z,10.90
2023-03-21T00:52:58.676Z,10.90
2023-03-21T00:55:26.996Z,10.80
2023-03-21T00:58:01.437Z,10.80
2023-03-21T01:00:33.207Z,10.80
2023-03-21T01:03:21.418Z,10.80
2023-03-21T01:06:05.603Z,10.80
2023-03-21T01:08:50.455Z,10.80
2023-03-21T01:11:24.697Z,10.80
2023-03-21T01:13:59.741Z,10.80
2023-03-21T01:16:36.363Z,10.80
2023-03-21T01:19:09.262Z,10.80
2023-03-21T01:21:43.438Z,10.80
2023-03-21T01:24:12.338Z,10.90
2023-03-21T01:26:40.548Z,10.90
2023-03-21T01:29:11.621Z,10.90
2023-03-21T01:31:40.082Z,10.90
2023-03-21T01:34:09.579Z,10.90
2023-03-21T01:36:37.857Z,10.90
2023-03-21T01:39:12.681Z,11.00
2023-03-21T01:41:44.647Z,11.00
2023-03-21T01:44:17.014Z,10.80
2023-03-21T01:47:00.005Z,10.90
2023-03-21T01:49:38.624Z,10.90
2023-03-21T01:52:21.072Z,11.00
2023-03-21T01:55:03.901Z,10.90
2023-03-21T01:57:43.717Z,10.90
2023-03-21T02:00:16.894Z,10.90
2023-03-21T02:02:52.787Z,11.00
2023-03-21T02:05:27.677Z,11.10
2023-03-21T02:07:58.585Z,10.90
2023-03-21T02:10:27.887Z,10.90
2023-03-21T02:12:59.436Z,10.90
2023-03-21T02:15:28.414Z,10.80
2023-03-21T02:18:01.557Z,10.80
2023-03-21T02:21:10.760Z,10.90
2023-03-21T02:24:08.575Z,10.80
2023-03-21T02:27:04.114Z,10.90
2023-03-21T02:30:28.284Z,10.90
2023-03-21T02:33:17.659Z,10.80
2023-03-21T02:36:13.612Z,10.80
2023-03-21T02:38:52.828Z,10.80
2023-03-21T02:41:32.363Z,10.90
2023-03-21T02:44:13.003Z,10.90
2023-03-21T02:46:56.338Z,10.90
2023-03-21T02:49:31.570Z,10.90
2023-03-21T02:52:13.586Z,11.00
2023-03-21T02:54:48.956Z,10.90
2023-03-21T02:57:25.321Z,11.00
2023-03-21T03:00:04.949Z,11.00
2023-03-21T03:02:42.475Z,11.00
2023-03-21T03:05:21.266Z,11.00
2023-03-21T03:08:11.464Z,11.00
2023-03-21T03:10:58.865Z,11.00
2023-03-21T03:13:48.037Z,11.00
2023-03-21T03:16:27.125Z,11.10
2023-03-21T03:18:57.732Z,11.00
2023-03-21T03:21:40.002Z,11.00
2023-03-21T03:24:13.661Z,11.10
2023-03-21T03:26:51.017Z,11.00
2023-03-21T03:29:21.721Z,11.00
2023-03-21T03:31:56.881Z,11.00
2023-03-21T03:34:33.137Z,11.00
2023-03-21T03:37:04.746Z,11.00
2023-03-21T03:39:42.758Z,11.00
2023-03-21T03:42:28.115Z,11.10
2023-03-21T03:44:57.734Z,11.00
2023-03-21T03:47:38.029Z,11.00
2023-03-21T03:50:16.368Z,11.00
2023-03-21T03:52:56.223Z,11.00
2023-03-21T03:55:30.290Z,10.90
2023-03-21T03:57:59.845Z,10.90
2023-03-21T04:00:33.896Z,10.90
2023-03-21T04:03:02.425Z,10.90
2023-03-21T04:05:33.342Z,10.90
2023-03-21T04:08:01.508Z,10.90
2023-03-21T04:10:29.691Z,10.90
2023-03-21T04:12:59.256Z,10.90
2023-03-21T04:15:27.523Z,10.90
2023-03-21T04:17:56.625Z,10.90
2023-03-21T04:20:43.262Z,10.90
2023-03-21T04:23:15.025Z,10.90
2023-03-21T04:25:55.574Z,10.80
2023-03-21T04:28:26.313Z,11.00
2023-03-21T04:31:03.569Z,10.90
2023-03-21T04:33:40.904Z,10.90
2023-03-21T04:36:18.759Z,11.00
2023-03-21T04:38:48.585Z,11.00
2023-03-21T04:41:16.726Z,11.00
2023-03-21T04:43:47.413Z,11.00
2023-03-21T04:46:15.621Z,11.00
2023-03-21T04:48:43.835Z,11.00
2023-03-21T04:51:12.223Z,11.10
2023-03-21T04:53:42.871Z,11.10
2023-03-21T04:56:11.693Z,11.10
2023-03-21T04:58:40.592Z,11.10
2023-03-21T05:01:10.838Z,11.10
2023-03-21T05:03:40.442Z,11.10
2023-03-21T05:06:12.349Z,11.10
2023-03-21T05:08:41.545Z,11.10
2023-03-21T05:11:12.862Z,11.00
2023-03-21T05:13:41.594Z,11.00
2023-03-21T05:16:11.763Z,11.00
2023-03-21T05:18:39.913Z,11.00
2023-03-21T05:21:10.887Z,11.10
2023-03-21T05:23:42.259Z,11.00
2023-03-21T05:26:11.441Z,10.90
2023-03-21T05:28:43.148Z,11.00
2023-03-21T05:31:15.917Z,11.00
2023-03-21T05:33:44.236Z,11.00
2023-03-21T05:36:12.783Z,11.00
2023-03-21T05:38:43.099Z,11.00
2023-03-21T05:41:31.094Z,10.90
2023-03-21T05:44:00.741Z,10.90
2023-03-21T05:46:43.678Z,10.90
2023-03-21T05:49:12.940Z,10.90
2023-03-21T05:51:42.477Z,11.00
2023-03-21T05:54:16.801Z,11.00
2023-03-21T05:56:47.101Z,10.90
2023-03-21T05:59:23.621Z,10.90
2023-03-21T06:01:55.762Z,10.90
2023-03-21T06:04:24.028Z,11.00
2023-03-21T06:06:56.005Z,11.00
2023-03-21T06:09:26.066Z,11.00
2023-03-21T06:11:56.694Z,10.90
2023-03-21T06:14:33.210Z,10.90
2023-03-21T06:17:06.333Z,10.90
2023-03-21T06:19:44.305Z,10.90
2023-03-21T06:22:17.354Z,11.10
2023-03-21T06:24:56.348Z,11.00
2023-03-21T06:27:26.556Z,11.00
2023-03-21T06:29:59.824Z,11.00
2023-03-21T06:32:32.498Z,11.00
2023-03-21T06:35:10.014Z,11.00
2023-03-21T06:37:40.840Z,11.20
2023-03-21T06:40:14.719Z,11.00
2023-03-21T06:42:44.830Z,11.00
2023-03-21T06:45:14.575Z,11.10
2023-03-21T06:47:47.228Z,11.30
2023-03-21T06:50:15.461Z,11.10
2023-03-21T06:52:44.234Z,11.10
2023-03-21T06:55:19.646Z,11.10
2023-03-21T06:57:48.230Z,11.20
2023-03-21T07:00:17.467Z,11.10
2023-03-21T07:02:51.382Z,11.10
2023-03-21T07:05:20.094Z,11.10
2023-03-21T07:07:48.986Z,11.00
2023-03-21T07:10:20.292Z,11.00
2023-03-21T07:12:48.373Z,11.00
2023-03-21T07:16:10.755Z,11.00
2023-03-21T07:18:14.042Z,11.00
2023-03-21T07:20:42.085Z,11.10
2023-03-21T07:23:10.498Z,11.10
2023-03-21T07:25:39.772Z,11.00
2023-03-21T07:28:09.178Z,11.00
2023-03-21T07:30:37.847Z,11.10
2023-03-21T07:33:08.206Z,11.10
2023-03-21T07:35:38.402Z,11.10
2023-03-21T07:38:09.277Z,11.10
2023-03-21T07:40:38.016Z,11.00
2023-03-21T07:43:06.206Z,11.10
2023-03-21T07:45:37.421Z,11.00
2023-03-21T07:48:05.932Z,11.10
2023-03-21T07:50:34.301Z,11.10
2023-03-21T07:53:04.476Z,11.10
2023-03-21T07:55:35.015Z,11.10
2023-03-21T07:58:04.464Z,11.20
2023-03-21T08:00:34.106Z,11.10
2023-03-21T08:03:02.829Z,11.10
2023-03-21T08:05:34.703Z,11.20
2023-03-21T08:08:04.761Z,11.10
2023-03-21T08:10:35.276Z,11.20
2023-03-21T08:13:06.627Z,11.30
2023-03-21T08:15:39.884Z,11.40
2023-03-21T08:18:10.372Z,11.50
2023-03-21T08:20:39.132Z,11.40
2023-03-21T08:23:08.908Z,11.40
2023-03-21T08:25:40.214Z,11.50
2023-03-21T08:28:11.462Z,11.60
2023-03-21T08:30:44.969Z,11.70
2023-03-21T08:33:17.433Z,11.70
2023-03-21T08:35:46.719Z,11.80
2023-03-21T08:38:18.146Z,11.80
2023-03-21T08:40:46.608Z,11.90
2023-03-21T08:43:22.626Z,12.00
2023-03-21T08:45:50.734Z,12.20
2023-03-21T08:48:18.910Z,12.10
2023-03-21T08:50:47.244Z,12.10
2023-03-21T08:53:16.623Z,12.40
2023-03-21T08:55:51.526Z,12.20
2023-03-21T09:14:46.424Z,12.60
2023-03-21T09:17:14.906Z,12.70
2023-03-21T09:19:47.506Z,12.70
2023-03-21T09:22:17.470Z,12.80
2023-03-21T09:24:49.298Z,12.80
2023-03-21T09:27:19.279Z,12.90
2023-03-21T09:30:01.865Z,12.90
2023-03-21T09:32:32.801Z,13.00
2023-03-21T09:35:08.171Z,13.00
2023-03-21T09:37:42.282Z,13.00
2023-03-21T09:40:22.973Z,13.00
2023-03-21T09:43:11.519Z,13.30
2023-03-21T09:45:48.700Z,13.20
2023-03-21T09:48:31.830Z,13.20
2023-03-21T09:51:01.318Z,13.20
2023-03-21T09:56:05.544Z,13.30
2023-03-21T09:58:36.544Z,13.40
2023-03-21T10:01:27.091Z,13.40
2023-03-21T10:03:56.283Z,13.50
2023-03-21T10:06:28.974Z,13.50
2023-03-21T10:09:00.088Z,13.50
2023-03-21T10:11:37.854Z,13.50
2023-03-21T10:14:14.224Z,13.60
2023-03-21T10:16:46.936Z,13.60
2023-03-21T10:19:16.997Z,13.60
2023-03-21T10:22:00.216Z,13.50
2023-03-21T10:24:30.908Z,13.50
2023-03-21T10:26:59.783Z,13.60
2023-03-21T10:29:31.732Z,13.40
2023-03-21T10:32:03.934Z,13.30
2023-03-21T10:34:43.888Z,13.30
2023-03-21T10:37:19.879Z,13.20
2023-03-21T10:39:50.616Z,13.20
2023-03-21T10:42:24.126Z,13.10
2023-03-21T10:44:54.362Z,13.10
2023-03-21T10:47:27.449Z,13.00
2023-03-21T10:50:07.153Z,13.00
2023-03-21T10:52:42.338Z,13.00
2023-03-21T10:55:23.034Z,13.00
2023-03-21T10:57:57.852Z,13.10
2023-03-21T11:00:30.251Z,13.00
2023-03-21T11:03:01.397Z,13.20
2023-03-21T11:05:42.559Z,13.30
2023-03-21T11:08:17.547Z,13.40
2023-03-21T11:10:56.435Z,13.40
2023-03-21T11:13:27.378Z,13.40
2023-03-21T11:15:58.447Z,13.50
2023-03-21T11:18:33.361Z,13.60
2023-03-21T11:21:06.975Z,13.60
2023-03-21T11:23:40.281Z,13.60
2023-03-21T11:26:12.764Z,13.60
2023-03-21T11:28:45.351Z,13.60
2023-03-21T11:31:14.242Z,13.60
2023-03-21T11:33:52.237Z,13.60
2023-03-21T11:36:39.095Z,13.60
2023-03-21T11:39:33.257Z,13.50
2023-03-21T11:42:34.050Z,13.50
2023-03-21T11:45:10.748Z,13.50
2023-03-21T11:47:39.931Z,13.50
2023-03-21T11:50:19.651Z,13.50
2023-03-21T11:52:59.946Z,13.50
2023-03-21T11:55:41.786Z,13.60
2023-03-21T11:58:28.893Z,13.80
2023-03-21T12:01:06.492Z,13.90
2023-03-21T12:04:00.297Z,14.00
2023-03-21T12:06:37.377Z,14.10
2023-03-21T12:09:30.727Z,14.20
2023-03-21T12:12:24.280Z,14.20
2023-03-21T12:15:02.472Z,14.10
2023-03-21T12:17:42.866Z,14.00
2023-03-21T12:20:24.741Z,14.00
2023-03-21T12:23:09.446Z,13.90
2023-03-21T12:25:42.540Z,13.90
2023-03-21T12:28:32.696Z,13.80
2023-03-21T12:31:10.967Z,13.80
2023-03-21T12:34:09.932Z,13.80
2023-03-21T12:36:56.993Z,13.80
2023-03-21T12:39:31.837Z,13.80
2023-03-21T12:42:31.293Z,13.90
2023-03-21T12:45:11.563Z,13.90
2023-03-21T12:47:46.970Z,13.90
2023-03-21T12:50:23.425Z,13.90
2023-03-21T12:52:55.886Z,14.00
2023-03-21T12:55:29.082Z,14.10
2023-03-21T12:58:05.395Z,14.10
2023-03-21T13:00:38.612Z,14.10
2023-03-21T13:03:18.330Z,14.00
2023-03-21T13:05:56.025Z,13.90
2023-03-21T13:08:29.208Z,13.90
2023-03-21T13:11:01.205Z,14.00
2023-03-21T13:13:35.807Z,14.10
2023-03-21T13:16:13.050Z,14.10
2023-03-21T13:18:56.024Z,14.20
2023-03-21T13:21:40.911Z,14.20
2023-03-21T13:24:23.865Z,14.10
2023-03-21T13:27:03.177Z,14.10
2023-03-21T13:29:37.348Z,14.10
2023-03-21T13:32:16.814Z,13.90
2023-03-21T13:34:46.705Z,14.00
2023-03-21T13:37:23.106Z,14.00
2023-03-21T13:39:54.332Z,14.00
2023-03-21T13:42:37.431Z,14.00
2023-03-21T13:45:17.793Z,14.00
2023-03-21T13:48:05.251Z,14.00
2023-03-21T13:50:54.261Z,13.90
2023-03-21T13:53:40.130Z,13.90
2023-03-21T13:56:28.198Z,14.00
2023-03-21T13:59:15.225Z,13.90
2023-03-21T14:01:59.128Z,14.00
2023-03-21T14:04:41.885Z,14.10
2023-03-21T14:07:18.464Z,13.90
2023-03-21T14:09:50.656Z,13.90
2023-03-21T14:12:29.257Z,13.90
2023-03-21T14:15:16.720Z,13.80
2023-03-21T14:17:57.389Z,13.80
2023-03-21T14:20:49.403Z,13.80
2023-03-21T14:23:22.234Z,13.70
2023-03-21T14:25:57.770Z,13.70
2023-03-21T14:28:33.796Z,13.50
2023-03-21T14:31:12.016Z,13.70
2023-03-21T14:33:46.969Z,13.70
2023-03-21T14:36:19.698Z,13.70
2023-03-21T14:39:00.177Z,13.60
2023-03-21T14:41:33.299Z,13.70
2023-03-21T14:44:28.017Z,13.60
2023-03-21T14:47:04.728Z,13.60
2023-03-21T14:49:35.656Z,13.60
2023-03-21T14:52:15.041Z,13.50
2023-03-21T14:54:46.674Z,13.50
2023-03-21T14:57:20.626Z,13.50
2023-03-21T14:59:51.908Z,13.50
2023-03-21T15:02:29.443Z,13.50
2023-03-21T15:05:12.516Z,13.50
2023-03-21T15:07:45.148Z,13.40
2023-03-21T15:10:22.093Z,13.40
2023-03-21T15:12:59.753Z,13.30
2023-03-21T15:15:44.112Z,13.30
2023-03-21T15:21:42.954Z,13.30
2023-03-21T15:24:25.592Z,13.40
2023-03-21T15:27:09.220Z,13.40
2023-03-21T15:29:48.398Z,13.60
2023-03-21T15:32:37.619Z,13.60
2023-03-21T15:35:58.258Z,13.70
2023-03-21T15:39:39.509Z,13.70
2023-03-21T15:43:16.166Z,13.70
2023-03-21T15:46:25.863Z,13.80
2023-03-21T15:50:02.408Z,13.80
2023-03-21T15:52:46.078Z,13.80
2023-03-21T15:55:48.413Z,13.80
2023-03-21T15:58:50.874Z,14.00
2023-03-21T16:02:42.411Z,13.80
2023-03-21T16:05:11.523Z,13.60
2023-03-21T16:08:02.182Z,13.80
2023-03-21T16:10:45.846Z,13.80
2023-03-21T16:13:51.240Z,13.80
2023-03-21T16:17:00.529Z,13.90
2023-03-21T16:19:54.355Z,13.90
2023-03-21T16:23:09.552Z,13.90
2023-03-21T16:26:17.802Z,13.90
2023-03-21T16:29:19.752Z,13.80
2023-03-21T16:32:14.166Z,13.90
2023-03-21T16:34:48.404Z,13.80
2023-03-21T16:38:24.944Z,13.80
2023-03-21T16:45:22.022Z,13.80
2023-03-21T16:48:22.742Z,13.70
2023-03-21T16:54:14.669Z,13.60
2023-03-21T17:00:46.569Z,13.70
2023-03-21T17:04:08.181Z,13.40
2023-03-21T17:06:50.300Z,13.40
2023-03-21T17:09:35.523Z,13.60
2023-03-21T17:12:07.975Z,13.60
2023-03-21T17:14:38.758Z,13.50
2023-03-21T17:17:20.269Z,13.50
2023-03-21T17:20:27.543Z,13.40
2023-03-21T17:23:40.948Z,13.30
2023-03-21T17:26:11.028Z,13.20
2023-03-21T17:28:53.059Z,13.20
2023-03-21T17:31:33.823Z,13.10
2023-03-21T17:34:03.646Z,13.10
2023-03-21T17:36:38.230Z,13.00
2023-03-21T17:39:17.905Z,13.00
2023-03-21T17:41:57.314Z,12.90
2023-03-21T17:44:45.544Z,12.80
2023-03-21T17:47:48.043Z,12.80
2023-03-21T17:50:45.944Z,12.70
2023-03-21T17:53:25.533Z,12.50
2023-03-21T17:55:59.705Z,12.60
2023-03-21T17:58:28.765Z,12.60
2023-03-21T18:00:57.740Z,12.50
2023-03-21T18:03:30.450Z,12.50
2023-03-21T18:06:06.966Z,12.50
2023-03-21T18:08:45.225Z,12.50
2023-03-21T18:11:17.736Z,12.30
2023-03-21T18:13:59.310Z,12.40
2023-03-21T18:16:35.680Z,12.40
2023-03-21T18:19:04.651Z,12.40
2023-03-21T18:21:33.379Z,12.30
2023-03-21T18:24:02.108Z,12.30
2023-03-21T18:26:35.056Z,12.30
2023-03-21T18:32:05.807Z,12.20
2023-03-21T18:34:35.552Z,12.20
2023-03-21T18:37:07.633Z,12.10
2023-03-21T18:39:37.198Z,12.10
2023-03-21T18:42:14.653Z,12.00
2023-03-21T18:44:49.209Z,12.00
2023-03-21T18:47:18.534Z,12.00
2023-03-21T18:50:16.737Z,12.00
2023-03-21T18:52:39.998Z,12.00
2023-03-21T18:55:14.845Z,12.00
2023-03-21T18:57:49.264Z,12.00
2023-03-21T19:00:25.395Z,12.00
2023-03-21T19:03:09.908Z,11.80
2023-03-21T19:05:43.602Z,11.80
2023-03-21T19:08:11.830Z,11.90
2023-03-21T19:10:40.224Z,11.80
2023-03-21T19:13:10.118Z,11.80
2023-03-21T19:15:38.495Z,11.80
2023-03-21T19:18:37.271Z,11.80
2023-03-21T19:20:58.780Z,11.80
2023-03-21T19:23:39.893Z,11.80
2023-03-21T19:26:17.658Z,11.70
2023-03-21T19:28:47.588Z,11.80
2023-03-21T19:31:16.368Z,11.70
2023-03-21T19:33:44.829Z,11.70
2023-03-21T19:36:21.848Z,11.70
2023-03-21T19:38:50.942Z,11.80
2023-03-21T19:41:20.409Z,11.70
2023-03-21T19:43:55.142Z,11.90
2023-03-21T19:46:26.487Z,11.70
2023-03-21T19:48:56.711Z,11.70
2023-03-21T19:51:30.035Z,11.70
2023-03-21T19:53:59.041Z,11.80
2023-03-21T19:56:27.892Z,11.70
2023-03-21T19:59:02.877Z,11.80
2023-03-21T20:01:32.314Z,11.90
2023-03-21T20:04:00.969Z,11.80
2023-03-21T20:06:29.170Z,11.80
2023-03-21T20:09:41.257Z,11.80
2023-03-21T20:11:45.826Z,11.80
2023-03-21T20:14:15.999Z,11.80
2023-03-21T20:16:44.199Z,11.70
2023-03-21T20:19:16.240Z,11.70
2023-03-21T20:21:52.286Z,11.70
2023-03-21T20:24:25.882Z,11.70
2023-03-21T20:26:55.825Z,11.50
2023-03-21T20:32:17.222Z,11.60
2023-03-21T20:34:46.220Z,11.60
2023-03-21T20:37:14.449Z,11.70
2023-03-21T20:39:42.709Z,11.50
2023-03-21T20:42:10.923Z,11.50
2023-03-21T20:44:58.272Z,11.50
2023-03-21T20:47:28.036Z,11.50
2023-03-21T20:49:58.550Z,11.50
2023-03-21T20:52:54.770Z,11.50
2023-03-21T20:55:16.729Z,11.50
2023-03-21T20:57:45.130Z,11.50
2023-03-21T21:00:17.305Z,11.50
2023-03-21T21:02:47.624Z,11.50
2023-03-21T21:05:34.609Z,11.50
2023-03-21T21:08:03.924Z,11.50
2023-03-21T21:10:34.415Z,11.50
2023-03-21T21:13:02.699Z,11.50
2023-03-21T21:15:40.697Z,11.50
2023-03-21T21:18:11.951Z,11.40
2023-03-21T21:21:11.007Z,11.50
2023-03-21T21:23:58.453Z,11.50
2023-03-21T21:26:48.762Z,11.50
2023-03-21T21:29:26.985Z,11.50
2023-03-21T21:32:18.831Z,11.60
2023-03-21T21:34:57.097Z,11.50
2023-03-21T21:37:38.306Z,11.60
2023-03-21T21:40:15.638Z,11.50
2023-03-21T21:42:47.676Z,11.50
2023-03-21T21:45:28.612Z,11.40
2023-03-21T21:48:11.294Z,11.50
2023-03-21T21:50:59.476Z,11.40
2023-03-21T21:53:37.093Z,11.40
2023-03-21T21:56:41.624Z,11.40
2023-03-21T21:59:54.376Z,11.30
2023-03-21T22:02:27.703Z,11.30
2023-03-21T22:04:58.641Z,11.30
2023-03-21T22:07:27.783Z,11.30
2023-03-21T22:09:58.226Z,11.30
2023-03-21T22:12:28.938Z,11.40
2023-03-21T22:14:58.983Z,11.30
2023-03-21T22:17:30.772Z,11.20
2023-03-21T22:20:06.619Z,11.30
2023-03-21T22:22:40.619Z,11.20
2023-03-21T22:25:11.950Z,11.20
2023-03-21T22:27:42.336Z,11.20
2023-03-21T22:30:16.659Z,11.20
2023-03-21T22:33:06.217Z,11.20
2023-03-21T22:35:40.514Z,11.20
2023-03-21T22:38:10.548Z,11.20
2023-03-21T22:40:40.057Z,11.20
2023-03-21T22:43:11.790Z,11.10
2023-03-21T22:45:42.601Z,11.20
2023-03-21T22:48:12.756Z,11.10
2023-03-21T22:50:43.335Z,11.10
2023-03-21T22:53:15.759Z,11.10
2023-03-21T22:55:44.529Z,11.10
2023-03-21T22:58:13.376Z,11.20
2023-03-21T23:00:45.008Z,11.10
2023-03-21T23:03:16.855Z,11.10
2023-03-21T23:05:49.276Z,11.10
2023-03-21T23:08:17.550Z,11.10
2023-03-21T23:10:47.795Z,11.10
2023-03-21T23:13:16.087Z,11.10
2023-03-21T23:15:44.718Z,11.10
2023-03-21T23:18:12.954Z,11.10
2023-03-21T23:20:41.955Z,11.10
2023-03-21T23:23:15.005Z,11.10
2023-03-21T23:25:43.830Z,11.10
2023-03-21T23:28:12.412Z,11.10
2023-03-21T23:30:41.441Z,11.00
2023-03-21T23:33:10.201Z,11.30
2023-03-21T23:35:39.844Z,11.10
2023-03-21T23:38:08.576Z,11.10
2023-03-21T23:40:42.410Z,11.20
2023-03-21T23:43:12.362Z,11.30
2023-03-21T23:45:44.373Z,11.20
2023-03-21T23:48:13.821Z,11.20
2023-03-21T23:50:42.556Z,11.20
2023-03-21T23:53:13.500Z,11.20
2023-03-21T23:55:44.780Z,11.20
2023-03-21T23:58:13.005Z,11.20
